Time;durP1;ratioP1;P1;durP2;ratioP2;P2;SDS_P1;SDS_P2;PMS_P1;PMS_P2;Temp;Humidity;BMP_temperature;BMP_pressure;BME280_temperature;BME280_humidity;BME280_pressure;Samples;Min_cycle;Max_cycle;Signal;HPM_P1;HPM_P2
2023/07/07 00:02:15;;;;;;;;;;;14.20;99.90;;;;;;5087034;28;19931;-78
2023/07/07 00:04:40;;;;;;;;;;;14.20;99.90;;;;;;5094308;28;20393;-78
2023/07/07 00:07:06;;;;;;;;;;;14.10;99.90;;;;;;5091261;28;20290;-78
2023/07/07 00:09:31;;;;;;;;;;;14.10;99.90;;;;;;5099115;28;20359;-77
2023/07/07 00:11:57;;;;;;;;;;;14.10;99.90;;;;;;5091450;28;19928;-78
2023/07/07 00:14:23;;;;;;;;;;;14.00;99.90;;;;;;5080300;28;19946;-78
2023/07/07 00:16:48;;;;;;;;;;;14.00;99.90;;;;;;5094306;28;19928;-78
2023/07/07 00:19:15;;;;;;;;;;;14.00;99.90;;;;;;5112321;28;19974;-76
2023/07/07 00:21:42;;;;;;;;;;;14.00;99.90;;;;;;5094344;28;19924;-77
2023/07/07 00:24:08;;;;;;;;;;;14.10;99.90;;;;;;5092843;28;19924;-78
2023/07/07 00:26:34;;;;;;;;;;;14.00;99.90;;;;;;5096826;28;19924;-78
2023/07/07 00:28:59;;;;;;;;;;;13.90;99.90;;;;;;5097433;28;19932;-78
2023/07/07 00:31:25;;;;;;;;;;;13.90;99.90;;;;;;5092737;28;19931;-77
2023/07/07 00:33:51;;;;;;;;;;;13.80;99.90;;;;;;5095669;28;19930;-78
2023/07/07 00:36:17;;;;;;;;;;;13.80;99.90;;;;;;5094149;28;19924;-77
2023/07/07 00:38:42;;;;;;;;;;;13.80;99.90;;;;;;5094684;28;19978;-78
2023/07/07 00:41:08;;;;;;;;;;;13.70;99.90;;;;;;5094603;28;19990;-78
2023/07/07 00:43:34;;;;;;;;;;;13.70;99.90;;;;;;5111853;27;19924;-78
2023/07/07 00:46:00;;;;;;;;;;;13.70;99.90;;;;;;5107082;28;20002;-78
2023/07/07 00:48:25;;;;;;;;;;;13.60;99.90;;;;;;5095480;27;20011;-78
2023/07/07 00:50:54;;;;;;;;;;;13.60;99.90;;;;;;5095838;28;19963;-78
2023/07/07 00:53:20;;;;;;;;;;;13.60;99.90;;;;;;5094354;28;19935;-78
2023/07/07 00:55:49;;;;;;;;;;;13.60;99.90;;;;;;5093751;28;20018;-78
2023/07/07 00:58:18;;;;;;;;;;;13.50;99.90;;;;;;5081200;28;19924;-78
2023/07/07 01:00:46;;;;;;;;;;;13.50;99.90;;;;;;5088561;28;20334;-78
2023/07/07 01:03:14;;;;;;;;;;;13.50;99.90;;;;;;5097344;28;19928;-79
2023/07/07 01:05:41;;;;;;;;;;;13.40;99.90;;;;;;5095559;28;19932;-77
2023/07/07 01:08:07;;;;;;;;;;;13.40;99.90;;;;;;5092490;28;19924;-78
2023/07/07 01:10:33;;;;;;;;;;;13.30;99.90;;;;;;5087803;28;19967;-78
2023/07/07 01:12:59;;;;;;;;;;;13.30;99.90;;;;;;5096132;28;19963;-77
2023/07/07 01:15:27;;;;;;;;;;;13.30;99.90;;;;;;5096672;28;19924;-78
2023/07/07 01:17:52;;;;;;;;;;;13.30;99.90;;;;;;5101635;28;19924;-77
2023/07/07 01:20:21;;;;;;;;;;;13.20;99.90;;;;;;5099142;28;19979;-78
2023/07/07 01:22:50;;;;;;;;;;;13.20;99.90;;;;;;5092253;28;19924;-78
2023/07/07 01:25:36;;;;;;;;;;;13.20;99.90;;;;;;5088112;28;19931;-78
2023/07/07 01:28:13;;;;;;;;;;;13.20;99.90;;;;;;5088760;28;19931;-78
2023/07/07 01:30:45;;;;;;;;;;;13.20;99.90;;;;;;5084339;28;19916;-78
2023/07/07 01:33:13;;;;;;;;;;;13.20;99.90;;;;;;5092723;28;20366;-78
2023/07/07 01:35:39;;;;;;;;;;;13.20;99.90;;;;;;5090246;28;20384;-78
2023/07/07 01:38:04;;;;;;;;;;;13.20;99.90;;;;;;5095091;28;20026;-78
2023/07/07 01:40:30;;;;;;;;;;;13.20;99.90;;;;;;5097275;28;19924;-77
2023/07/07 01:42:58;;;;;;;;;;;13.20;99.90;;;;;;5094171;28;19930;-78
2023/07/07 01:45:29;;;;;;;;;;;13.20;99.90;;;;;;5097924;28;19932;-78
2023/07/07 01:48:15;;;;;;;;;;;13.10;99.90;;;;;;5094648;28;19924;-77
2023/07/07 01:50:40;;;;;;;;;;;13.10;99.90;;;;;;5086371;28;20409;-78
2023/07/07 01:53:11;;;;;;;;;;;13.10;99.90;;;;;;5091499;28;19924;-78
2023/07/07 01:55:40;;;;;;;;;;;13.10;99.90;;;;;;5101491;28;19925;-77
2023/07/07 01:58:07;;;;;;;;;;;13.10;99.90;;;;;;5102669;28;19950;-77
2023/07/07 02:00:33;;;;;;;;;;;13.00;99.90;;;;;;5104088;28;19952;-77
2023/07/07 02:02:59;;;;;;;;;;;13.20;99.90;;;;;;5093635;28;19908;-77
2023/07/07 02:05:26;;;;;;;;;;;13.00;99.90;;;;;;5098521;28;19994;-77
2023/07/07 02:07:52;;;;;;;;;;;13.00;99.90;;;;;;5101470;28;19928;-78
2023/07/07 02:10:17;;;;;;;;;;;13.00;99.90;;;;;;5104450;28;19977;-77
2023/07/07 02:12:43;;;;;;;;;;;12.90;99.90;;;;;;5091702;28;19978;-78
2023/07/07 02:15:08;;;;;;;;;;;12.90;99.90;;;;;;5090349;28;19924;-78
2023/07/07 02:17:34;;;;;;;;;;;12.90;99.90;;;;;;5099468;28;19978;-78
2023/07/07 02:19:59;;;;;;;;;;;12.90;99.90;;;;;;5108671;28;20413;-78
2023/07/07 02:22:25;;;;;;;;;;;12.90;99.90;;;;;;5097140;28;20425;-78
2023/07/07 02:24:50;;;;;;;;;;;12.80;99.90;;;;;;5104510;28;19929;-78
2023/07/07 02:27:16;;;;;;;;;;;12.90;99.90;;;;;;5097730;28;19924;-78
2023/07/07 02:29:42;;;;;;;;;;;12.80;99.90;;;;;;5090500;28;19966;-78
2023/07/07 02:32:07;;;;;;;;;;;12.80;99.90;;;;;;5083011;28;20419;-77
2023/07/07 02:34:33;;;;;;;;;;;12.80;99.90;;;;;;5094759;28;20478;-79
2023/07/07 02:36:58;;;;;;;;;;;12.90;99.90;;;;;;5088852;28;20079;-77
2023/07/07 02:39:24;;;;;;;;;;;12.80;99.90;;;;;;5089743;28;19923;-78
2023/07/07 02:41:50;;;;;;;;;;;12.80;99.90;;;;;;5106666;28;19927;-77
2023/07/07 02:44:16;;;;;;;;;;;12.90;99.90;;;;;;5101927;28;20372;-79
2023/07/07 02:46:42;;;;;;;;;;;12.90;99.90;;;;;;5100642;28;19931;-77
2023/07/07 02:49:07;;;;;;;;;;;12.90;99.90;;;;;;5101957;28;20434;-78
2023/07/07 02:51:33;;;;;;;;;;;12.90;99.90;;;;;;5108544;28;19984;-80
2023/07/07 02:53:58;;;;;;;;;;;12.90;99.90;;;;;;5099167;28;19925;-78
2023/07/07 02:56:24;;;;;;;;;;;12.90;99.90;;;;;;5091397;28;19939;-79
2023/07/07 02:58:49;;;;;;;;;;;13.00;99.90;;;;;;5098166;28;19928;-77
2023/07/07 03:01:16;;;;;;;;;;;13.00;99.90;;;;;;5112816;28;19931;-77
2023/07/07 03:03:43;;;;;;;;;;;13.00;99.90;;;;;;5103457;28;19928;-78
2023/07/07 03:06:11;;;;;;;;;;;13.10;99.90;;;;;;5088968;28;19933;-78
2023/07/07 03:08:37;;;;;;;;;;;13.10;99.90;;;;;;5104401;28;19938;-78
2023/07/07 03:11:06;;;;;;;;;;;13.20;99.90;;;;;;5090904;28;20356;-79
2023/07/07 03:13:32;;;;;;;;;;;13.20;99.90;;;;;;5104279;27;19977;-78
2023/07/07 03:15:58;;;;;;;;;;;13.20;99.90;;;;;;5094997;28;19924;-78
2023/07/07 03:18:23;;;;;;;;;;;13.30;99.90;;;;;;5097894;28;19968;-78
2023/07/07 03:20:49;;;;;;;;;;;13.30;99.90;;;;;;5098058;28;19988;-78
2023/07/07 03:23:14;;;;;;;;;;;13.20;99.90;;;;;;5099570;28;19924;-77
2023/07/07 03:25:40;;;;;;;;;;;13.30;99.90;;;;;;5102970;28;19931;-79
2023/07/07 03:28:05;;;;;;;;;;;13.30;99.90;;;;;;5096097;28;19924;-77
2023/07/07 03:30:34;;;;;;;;;;;13.40;99.90;;;;;;5096275;28;19924;-78
2023/07/07 03:33:00;;;;;;;;;;;13.30;99.90;;;;;;5096936;28;19935;-78
2023/07/07 03:35:25;;;;;;;;;;;13.30;99.90;;;;;;5096024;28;19924;-78
2023/07/07 03:37:51;;;;;;;;;;;13.40;99.90;;;;;;5102950;27;20370;-78
2023/07/07 03:40:16;;;;;;;;;;;13.40;99.90;;;;;;5093223;28;20385;-78
2023/07/07 03:42:42;;;;;;;;;;;13.30;99.90;;;;;;5094996;28;19924;-78
2023/07/07 03:45:08;;;;;;;;;;;13.40;99.90;;;;;;5097911;28;19959;-78
2023/07/07 03:47:33;;;;;;;;;;;13.30;99.90;;;;;;5087906;28;19931;-78
2023/07/07 03:49:59;;;;;;;;;;;13.40;99.90;;;;;;5106758;28;19980;-78
2023/07/07 03:52:25;;;;;;;;;;;13.40;99.90;;;;;;5095116;28;19960;-78
2023/07/07 03:54:50;;;;;;;;;;;13.40;99.90;;;;;;5093670;28;19963;-79
2023/07/07 03:57:16;;;;;;;;;;;13.40;99.90;;;;;;5093886;28;19924;-79
2023/07/07 03:59:41;;;;;;;;;;;13.50;99.90;;;;;;5090652;28;20341;-79
2023/07/07 04:02:07;;;;;;;;;;;13.50;99.90;;;;;;5102496;28;19924;-79
2023/07/07 04:04:32;;;;;;;;;;;13.60;99.90;;;;;;5109304;28;19983;-79
2023/07/07 04:06:58;;;;;;;;;;;13.60;99.90;;;;;;5094951;28;19924;-79
2023/07/07 04:09:24;;;;;;;;;;;13.60;99.90;;;;;;5094556;28;19933;-78
2023/07/07 04:11:50;;;;;;;;;;;13.70;99.90;;;;;;5093996;28;19935;-79
2023/07/07 04:14:15;;;;;;;;;;;13.70;99.90;;;;;;5110863;28;19916;-78
2023/07/07 04:16:41;;;;;;;;;;;13.60;99.90;;;;;;5093966;28;20349;-79
2023/07/07 04:19:07;;;;;;;;;;;13.70;99.90;;;;;;5110930;28;19940;-78
2023/07/07 04:21:34;;;;;;;;;;;13.80;99.90;;;;;;5097222;28;19920;-80
2023/07/07 04:24:00;;;;;;;;;;;13.80;99.90;;;;;;5104310;28;20384;-79
2023/07/07 04:26:26;;;;;;;;;;;13.90;99.90;;;;;;5087805;28;20011;-78
2023/07/07 04:28:53;;;;;;;;;;;13.90;99.90;;;;;;5097977;28;19931;-80
2023/07/07 04:31:20;;;;;;;;;;;13.90;99.90;;;;;;5091233;28;20349;-78
2023/07/07 04:33:46;;;;;;;;;;;14.00;99.90;;;;;;5094406;28;19928;-79
2023/07/07 04:36:14;;;;;;;;;;;14.00;99.90;;;;;;5095841;28;19931;-78
2023/07/07 04:38:40;;;;;;;;;;;14.10;99.90;;;;;;5097101;28;20392;-78
2023/07/07 04:41:12;;;;;;;;;;;14.10;99.90;;;;;;5083150;28;19932;-78
2023/07/07 04:43:39;;;;;;;;;;;14.20;99.90;;;;;;5089168;28;19969;-78
2023/07/07 04:46:05;;;;;;;;;;;14.20;99.90;;;;;;5099643;28;19924;-78
2023/07/07 04:48:31;;;;;;;;;;;14.30;99.90;;;;;;5099429;28;19924;-78
2023/07/07 04:51:02;;;;;;;;;;;14.30;99.90;;;;;;5111768;27;19928;-81
2023/07/07 04:53:28;;;;;;;;;;;14.30;99.90;;;;;;5101909;28;19932;-78
2023/07/07 04:55:54;;;;;;;;;;;14.40;99.90;;;;;;5098119;28;19947;-79
2023/07/07 04:58:23;;;;;;;;;;;14.50;99.90;;;;;;5100583;28;20107;-78
2023/07/07 05:00:49;;;;;;;;;;;14.60;99.90;;;;;;5100827;28;19947;-79
2023/07/07 05:03:14;;;;;;;;;;;14.60;99.90;;;;;;5105110;28;19924;-80
2023/07/07 05:05:40;;;;;;;;;;;14.70;99.90;;;;;;5094661;28;19931;-79
2023/07/07 05:08:06;;;;;;;;;;;14.70;99.90;;;;;;5104119;28;19924;-79
2023/07/07 05:10:31;;;;;;;;;;;14.80;99.90;;;;;;5091286;28;19924;-79
2023/07/07 05:12:57;;;;;;;;;;;14.90;99.90;;;;;;5089466;28;19928;-80
2023/07/07 05:15:23;;;;;;;;;;;15.00;99.90;;;;;;5094558;28;19932;-80
2023/07/07 05:17:50;;;;;;;;;;;15.00;99.90;;;;;;5116328;28;19923;-79
2023/07/07 05:20:16;;;;;;;;;;;15.20;99.90;;;;;;5096780;28;19970;-78
2023/07/07 05:22:41;;;;;;;;;;;15.30;99.90;;;;;;5094464;28;19944;-80
2023/07/07 05:25:07;;;;;;;;;;;15.40;99.90;;;;;;5097982;28;19931;-79
2023/07/07 05:27:32;;;;;;;;;;;15.50;99.90;;;;;;5097847;28;19924;-78
2023/07/07 05:29:58;;;;;;;;;;;15.60;99.90;;;;;;5099403;28;19931;-80
2023/07/07 05:32:23;;;;;;;;;;;15.80;99.90;;;;;;5096546;28;20003;-80
2023/07/07 05:34:49;;;;;;;;;;;15.90;99.90;;;;;;5093538;28;19932;-79
2023/07/07 05:37:16;;;;;;;;;;;16.10;99.90;;;;;;5082132;28;19977;-78
2023/07/07 05:39:41;;;;;;;;;;;16.20;99.90;;;;;;5095245;28;20377;-79
2023/07/07 05:42:07;;;;;;;;;;;16.30;99.90;;;;;;5083870;28;19985;-79
2023/07/07 05:44:32;;;;;;;;;;;16.40;99.90;;;;;;5097324;28;19930;-80
2023/07/07 05:46:58;;;;;;;;;;;16.40;99.90;;;;;;5100380;28;20033;-79
2023/07/07 05:49:24;;;;;;;;;;;16.50;99.90;;;;;;5095783;28;19971;-81
2023/07/07 05:51:49;;;;;;;;;;;16.60;99.90;;;;;;5100392;28;19928;-80
2023/07/07 05:54:15;;;;;;;;;;;16.80;99.90;;;;;;5097689;28;19931;-79
2023/07/07 05:56:41;;;;;;;;;;;16.90;99.90;;;;;;5105662;28;19931;-79
2023/07/07 05:59:06;;;;;;;;;;;17.00;99.90;;;;;;5097002;28;19924;-80
2023/07/07 06:01:33;;;;;;;;;;;17.10;99.90;;;;;;5085804;28;20462;-81
2023/07/07 06:03:59;;;;;;;;;;;17.30;99.90;;;;;;5088209;28;20309;-79
2023/07/07 06:06:24;;;;;;;;;;;17.50;99.90;;;;;;5102227;28;19924;-81
2023/07/07 06:08:50;;;;;;;;;;;17.70;99.90;;;;;;5092931;28;19932;-80
2023/07/07 06:11:16;;;;;;;;;;;18.10;99.90;;;;;;5108698;28;19937;-79
2023/07/07 06:13:41;;;;;;;;;;;18.40;99.90;;;;;;5098716;28;19928;-80
2023/07/07 06:16:07;;;;;;;;;;;18.80;99.90;;;;;;5101725;28;20434;-80
2023/07/07 06:18:32;;;;;;;;;;;19.20;99.90;;;;;;5105050;28;19924;-80
2023/07/07 06:20:59;;;;;;;;;;;19.70;99.90;;;;;;5108308;28;19912;-80
2023/07/07 06:23:26;;;;;;;;;;;19.90;99.90;;;;;;5099779;28;19924;-78
2023/07/07 06:25:52;;;;;;;;;;;20.00;99.90;;;;;;5093360;28;20038;-81
2023/07/07 06:28:20;;;;;;;;;;;19.90;99.90;;;;;;5090274;28;19932;-79
2023/07/07 06:30:50;;;;;;;;;;;19.80;99.90;;;;;;5093069;28;19931;-80
2023/07/07 06:33:19;;;;;;;;;;;19.70;99.90;;;;;;5098888;28;19999;-81
2023/07/07 06:35:45;;;;;;;;;;;19.70;99.90;;;;;;5077542;28;19935;-80
2023/07/07 06:38:11;;;;;;;;;;;19.70;99.90;;;;;;5094172;28;20378;-79
2023/07/07 06:40:36;;;;;;;;;;;19.70;99.90;;;;;;5073764;28;19940;-79
2023/07/07 06:43:02;;;;;;;;;;;19.70;99.90;;;;;;5094926;28;19924;-80
2023/07/07 06:45:28;;;;;;;;;;;19.70;99.90;;;;;;5106416;28;19949;-80
2023/07/07 06:47:53;;;;;;;;;;;19.70;99.90;;;;;;5090909;28;19931;-80
2023/07/07 06:50:27;;;;;;;;;;;19.80;99.90;;;;;;5105174;28;19934;-79
2023/07/07 06:52:53;;;;;;;;;;;19.90;99.90;;;;;;5103416;28;19931;-80
2023/07/07 06:55:18;;;;;;;;;;;19.90;99.90;;;;;;5102368;28;19908;-78
2023/07/07 06:57:44;;;;;;;;;;;20.00;99.90;;;;;;5105255;28;19924;-78
2023/07/07 07:00:10;;;;;;;;;;;20.10;99.90;;;;;;5112707;28;19984;-80
2023/07/07 07:02:35;;;;;;;;;;;20.20;99.90;;;;;;5113007;28;19955;-79
2023/07/07 07:05:01;;;;;;;;;;;20.20;99.90;;;;;;5101294;28;19915;-80
2023/07/07 07:07:27;;;;;;;;;;;20.30;99.90;;;;;;5100456;28;19935;-79
2023/07/07 07:09:52;;;;;;;;;;;20.40;99.90;;;;;;5102453;28;20464;-80
2023/07/07 07:12:18;;;;;;;;;;;20.50;99.90;;;;;;5098114;28;19925;-80
2023/07/07 07:14:43;;;;;;;;;;;20.60;99.90;;;;;;5092202;28;19976;-80
2023/07/07 07:17:09;;;;;;;;;;;20.60;99.90;;;;;;5102978;28;20010;-79
2023/07/07 07:19:34;;;;;;;;;;;20.80;99.90;;;;;;5104277;28;19924;-79
2023/07/07 07:22:00;;;;;;;;;;;20.80;99.90;;;;;;5100465;28;19991;-79
2023/07/07 07:24:26;;;;;;;;;;;20.90;99.90;;;;;;5114475;28;19924;-79
2023/07/07 07:26:51;;;;;;;;;;;21.00;99.90;;;;;;5090978;28;19971;-79
2023/07/07 07:29:17;;;;;;;;;;;21.10;99.90;;;;;;5093448;28;19927;-80
2023/07/07 07:31:43;;;;;;;;;;;21.20;99.90;;;;;;5100065;28;19946;-79
2023/07/07 07:34:38;;;;;;;;;;;21.30;99.90;;;;;;5103047;28;19915;-78
2023/07/07 07:37:04;;;;;;;;;;;21.40;99.90;;;;;;5083748;28;19925;-79
2023/07/07 07:39:30;;;;;;;;;;;21.50;99.90;;;;;;5103597;28;19936;-80
2023/07/07 07:41:56;;;;;;;;;;;21.50;99.90;;;;;;5099149;28;19924;-83
2023/07/07 07:44:23;;;;;;;;;;;21.60;99.90;;;;;;5098451;28;19976;-80
2023/07/07 07:46:49;;;;;;;;;;;21.80;99.90;;;;;;5104726;28;19992;-80
2023/07/07 07:49:15;;;;;;;;;;;21.80;99.90;;;;;;5102339;28;19931;-80
2023/07/07 07:51:41;;;;;;;;;;;21.90;99.90;;;;;;5130464;27;20425;-81
2023/07/07 07:54:07;;;;;;;;;;;22.00;99.90;;;;;;5109314;28;19924;-80
2023/07/07 07:56:33;;;;;;;;;;;22.10;99.90;;;;;;5104367;28;19924;-79
2023/07/07 07:58:58;;;;;;;;;;;22.20;99.90;;;;;;5099191;28;19920;-82
2023/07/07 08:01:24;;;;;;;;;;;22.30;99.90;;;;;;5109031;28;19930;-81
2023/07/07 08:03:50;;;;;;;;;;;22.40;99.90;;;;;;5100882;28;19987;-81
2023/07/07 08:06:15;;;;;;;;;;;22.50;99.90;;;;;;5101758;28;19931;-78
2023/07/07 08:08:41;;;;;;;;;;;22.60;99.90;;;;;;5091436;28;19991;-80
2023/07/07 08:11:09;;;;;;;;;;;22.60;99.20;;;;;;5099138;28;19936;-80
2023/07/07 08:13:34;;;;;;;;;;;22.70;99.30;;;;;;5105422;28;19931;-79
2023/07/07 08:16:00;;;;;;;;;;;22.90;99.50;;;;;;5116572;28;19924;-79
2023/07/07 08:18:25;;;;;;;;;;;22.90;99.50;;;;;;5112479;28;19924;-80
2023/07/07 08:20:51;;;;;;;;;;;23.10;99.10;;;;;;5097415;28;20289;-79
2023/07/07 08:23:17;;;;;;;;;;;23.20;98.70;;;;;;5105817;28;19992;-80
2023/07/07 08:25:42;;;;;;;;;;;23.20;97.90;;;;;;5099193;28;19975;-80
2023/07/07 08:28:11;;;;;;;;;;;23.40;98.10;;;;;;5091949;28;19924;-79
2023/07/07 08:30:36;;;;;;;;;;;23.50;98.00;;;;;;5092825;28;19934;-79
2023/07/07 08:33:02;;;;;;;;;;;23.50;96.30;;;;;;5086161;28;19981;-79
2023/07/07 08:35:27;;;;;;;;;;;23.60;95.50;;;;;;5088197;28;19931;-79
2023/07/07 08:37:53;;;;;;;;;;;23.60;95.50;;;;;;5095585;28;20017;-79
2023/07/07 08:40:21;;;;;;;;;;;23.60;94.80;;;;;;5100788;28;20023;-80
2023/07/07 08:42:46;;;;;;;;;;;23.70;95.90;;;;;;5110415;28;19978;-79
2023/07/07 08:45:19;;;;;;;;;;;23.80;95.70;;;;;;5101581;28;19920;-79
2023/07/07 08:47:44;;;;;;;;;;;23.90;96.40;;;;;;5100813;28;20011;-81
2023/07/07 08:50:25;;;;;;;;;;;24.00;95.50;;;;;;5094020;28;19959;-81
2023/07/07 08:52:54;;;;;;;;;;;24.10;95.10;;;;;;5104540;28;19924;-79
2023/07/07 08:55:29;;;;;;;;;;;24.30;94.80;;;;;;5094969;28;19963;-80
2023/07/07 08:58:00;;;;;;;;;;;24.40;95.50;;;;;;5100775;28;19927;-80
2023/07/07 09:00:30;;;;;;;;;;;24.60;94.60;;;;;;5096035;28;19924;-79
2023/07/07 09:03:15;;;;;;;;;;;24.60;94.40;;;;;;5092893;28;20346;-81
2023/07/07 09:05:59;;;;;;;;;;;24.70;93.00;;;;;;5102102;28;19931;-80
2023/07/07 09:08:47;;;;;;;;;;;24.70;91.70;;;;;;5098347;28;19924;-81
2023/07/07 09:11:19;;;;;;;;;;;24.80;92.80;;;;;;5096687;28;20389;-79
2023/07/07 09:13:46;;;;;;;;;;;24.90;91.50;;;;;;5108285;28;19932;-80
2023/07/07 09:16:22;;;;;;;;;;;24.90;91.10;;;;;;5095537;28;20399;-80
2023/07/07 09:18:52;;;;;;;;;;;25.00;91.50;;;;;;5099941;28;19924;-80
2023/07/07 09:21:23;;;;;;;;;;;25.10;88.50;;;;;;5096941;28;19924;-80
2023/07/07 09:23:52;;;;;;;;;;;25.10;90.00;;;;;;5085248;28;19928;-80
2023/07/07 09:26:20;;;;;;;;;;;25.20;88.70;;;;;;5100609;28;19992;-80
2023/07/07 09:28:47;;;;;;;;;;;25.30;87.90;;;;;;5092854;28;19928;-81
2023/07/07 09:31:15;;;;;;;;;;;25.30;90.20;;;;;;5101614;28;19932;-80
2023/07/07 09:33:41;;;;;;;;;;;25.40;87.50;;;;;;5103880;28;19967;-79
2023/07/07 09:36:11;;;;;;;;;;;25.40;88.70;;;;;;5107583;28;20289;-79
2023/07/07 09:38:40;;;;;;;;;;;25.50;88.00;;;;;;5106939;28;19924;-78
2023/07/07 09:41:10;;;;;;;;;;;25.40;87.20;;;;;;5117070;28;20037;-79
2023/07/07 09:43:43;;;;;;;;;;;25.40;87.60;;;;;;5106482;28;19963;-81
2023/07/07 09:46:24;;;;;;;;;;;25.40;90.10;;;;;;5108544;28;19924;-81
2023/07/07 09:48:54;;;;;;;;;;;25.50;86.30;;;;;;5101761;28;19924;-80
2023/07/07 09:51:42;;;;;;;;;;;25.60;87.70;;;;;;5114914;28;19924;-80
2023/07/07 09:54:11;;;;;;;;;;;25.70;89.20;;;;;;5092003;28;19930;-78
2023/07/07 09:56:42;;;;;;;;;;;25.80;88.00;;;;;;5098910;28;20487;-78
2023/07/07 09:59:14;;;;;;;;;;;25.90;87.70;;;;;;5111043;28;19928;-79
2023/07/07 10:01:41;;;;;;;;;;;25.90;86.20;;;;;;5099320;28;20337;-79
2023/07/07 10:04:12;;;;;;;;;;;25.80;85.50;;;;;;5097930;28;19924;-79
2023/07/07 10:06:47;;;;;;;;;;;25.70;87.70;;;;;;5094425;28;20023;-82
2023/07/07 10:09:14;;;;;;;;;;;25.70;85.40;;;;;;5091580;28;19924;-80
2023/07/07 10:11:40;;;;;;;;;;;25.80;85.70;;;;;;5097521;28;19971;-80
2023/07/07 10:14:06;;;;;;;;;;;25.80;84.60;;;;;;5091483;28;19928;-82
2023/07/07 10:16:32;;;;;;;;;;;25.90;85.40;;;;;;5090880;28;19975;-80
2023/07/07 10:19:03;;;;;;;;;;;26.00;84.60;;;;;;5095471;28;19925;-79
2023/07/07 10:21:29;;;;;;;;;;;26.10;85.50;;;;;;5101900;28;19977;-82
2023/07/07 10:23:55;;;;;;;;;;;26.30;85.20;;;;;;5101529;28;19924;-80
2023/07/07 10:26:20;;;;;;;;;;;26.30;82.60;;;;;;5102354;28;19932;-79
2023/07/07 10:28:47;;;;;;;;;;;26.40;85.00;;;;;;5096951;28;19935;-81
2023/07/07 10:31:12;;;;;;;;;;;26.50;83.30;;;;;;5111179;28;19967;-80
2023/07/07 10:33:40;;;;;;;;;;;26.60;82.20;;;;;;5085221;28;19931;-80
2023/07/07 10:36:22;;;;;;;;;;;26.70;81.20;;;;;;5093937;28;19924;-82
2023/07/07 10:38:48;;;;;;;;;;;26.70;80.40;;;;;;5082956;28;19932;-80
2023/07/07 10:41:13;;;;;;;;;;;26.90;82.40;;;;;;5087792;28;19926;-80
2023/07/07 10:43:39;;;;;;;;;;;27.10;82.10;;;;;;5118368;28;19924;-80
2023/07/07 10:46:09;;;;;;;;;;;27.20;83.60;;;;;;5102770;28;20015;-79
2023/07/07 10:48:34;;;;;;;;;;;27.30;83.90;;;;;;5092700;28;20289;-80
2023/07/07 10:51:08;;;;;;;;;;;27.40;79.40;;;;;;5111964;28;19924;-82
2023/07/07 10:53:41;;;;;;;;;;;27.50;81.50;;;;;;5095096;28;19984;-81
2023/07/07 10:56:07;;;;;;;;;;;27.60;78.50;;;;;;5099120;28;19928;-82
2023/07/07 10:58:35;;;;;;;;;;;27.60;78.40;;;;;;5106336;28;19924;-82
2023/07/07 11:01:20;;;;;;;;;;;27.70;80.80;;;;;;5099483;28;20400;-79
2023/07/07 11:03:54;;;;;;;;;;;27.90;81.40;;;;;;5085834;28;19979;-81
2023/07/07 11:06:32;;;;;;;;;;;28.10;79.60;;;;;;5088410;28;19934;-81
2023/07/07 11:09:12;;;;;;;;;;;28.40;79.80;;;;;;5106563;28;19924;-82
2023/07/07 11:11:45;;;;;;;;;;;28.60;81.20;;;;;;5113735;28;19924;-80
2023/07/07 11:14:23;;;;;;;;;;;28.60;79.10;;;;;;5106852;28;20393;-80
2023/07/07 11:17:04;;;;;;;;;;;28.50;76.60;;;;;;5097813;28;19920;-79
2023/07/07 11:19:50;;;;;;;;;;;28.10;75.90;;;;;;5101506;28;20011;-80
2023/07/07 11:22:34;;;;;;;;;;;27.60;77.00;;;;;;5083363;28;19920;-80
2023/07/07 11:25:03;;;;;;;;;;;27.10;77.90;;;;;;5095147;28;19978;-80
2023/07/07 11:27:45;;;;;;;;;;;26.90;81.20;;;;;;5099094;28;20412;-80
2023/07/07 11:30:14;;;;;;;;;;;27.10;81.50;;;;;;5097029;28;19994;-81
2023/07/07 11:32:42;;;;;;;;;;;27.30;80.90;;;;;;5102939;28;19924;-81
2023/07/07 11:35:16;;;;;;;;;;;27.50;80.40;;;;;;5088427;28;19924;-81
2023/07/07 11:37:51;;;;;;;;;;;27.60;79.10;;;;;;5081665;28;19956;-80
2023/07/07 11:40:17;;;;;;;;;;;27.60;78.50;;;;;;5079589;28;19927;-80
2023/07/07 11:43:01;;;;;;;;;;;27.50;77.10;;;;;;5091655;28;19959;-82
2023/07/07 11:45:39;;;;;;;;;;;27.30;77.10;;;;;;5094151;28;19956;-80
2023/07/07 11:48:17;;;;;;;;;;;27.10;78.00;;;;;;5091305;28;20018;-80
2023/07/07 11:50:58;;;;;;;;;;;27.30;78.90;;;;;;5089357;28;19979;-80
2023/07/07 11:53:42;;;;;;;;;;;27.50;79.80;;;;;;5101404;28;19948;-83
2023/07/07 11:56:17;;;;;;;;;;;28.00;79.00;;;;;;5092796;28;19925;-81
2023/07/07 11:58:49;;;;;;;;;;;28.30;79.40;;;;;;5091080;28;19931;-79
2023/07/07 12:01:17;;;;;;;;;;;28.60;80.20;;;;;;5093512;28;20632;-83
2023/07/07 12:03:43;;;;;;;;;;;28.80;76.20;;;;;;5090159;28;19931;-81
2023/07/07 12:06:15;;;;;;;;;;;29.10;76.10;;;;;;5090715;28;20378;-81
2023/07/07 12:08:44;;;;;;;;;;;29.20;74.50;;;;;;5096799;28;19928;-79
2023/07/07 12:11:13;;;;;;;;;;;29.20;75.20;;;;;;5085083;28;20487;-78
2023/07/07 12:13:48;;;;;;;;;;;29.30;76.60;;;;;;5086849;28;19970;-80
2023/07/07 12:16:17;;;;;;;;;;;29.30;74.90;;;;;;5092215;28;19960;-81
2023/07/07 12:18:44;;;;;;;;;;;29.40;73.50;;;;;;5116638;27;19935;-82
2023/07/07 12:21:17;;;;;;;;;;;29.50;72.30;;;;;;5097228;28;19929;-83
2023/07/07 12:23:54;;;;;;;;;;;29.40;72.20;;;;;;5097599;28;19932;-81
2023/07/07 12:26:24;;;;;;;;;;;29.60;73.70;;;;;;5094575;28;19932;-82
2023/07/07 12:28:52;;;;;;;;;;;29.60;71.00;;;;;;5085938;28;19934;-81
2023/07/07 12:31:20;;;;;;;;;;;29.40;72.20;;;;;;5084733;28;19923;-79
2023/07/07 12:33:51;;;;;;;;;;;29.40;72.30;;;;;;5084694;28;20374;-82
2023/07/07 12:36:18;;;;;;;;;;;29.20;68.70;;;;;;5081912;28;19982;-81
2023/07/07 12:38:51;;;;;;;;;;;29.30;72.80;;;;;;5081199;28;19924;-83
2023/07/07 12:41:18;;;;;;;;;;;29.20;71.70;;;;;;5092134;28;19928;-80
2023/07/07 12:43:44;;;;;;;;;;;29.20;71.90;;;;;;5085302;28;19924;-79
2023/07/07 12:46:16;;;;;;;;;;;28.90;69.70;;;;;;5092756;28;20019;-80
2023/07/07 12:48:45;;;;;;;;;;;28.90;71.60;;;;;;5090017;28;19978;-80
2023/07/07 12:51:12;;;;;;;;;;;28.90;69.00;;;;;;5100893;28;19933;-82
2023/07/07 12:53:38;;;;;;;;;;;29.10;70.40;;;;;;5101869;28;19924;-80
2023/07/07 12:56:06;;;;;;;;;;;29.20;70.10;;;;;;5093642;28;19924;-82
2023/07/07 12:58:32;;;;;;;;;;;29.30;70.70;;;;;;5095618;28;20019;-81
2023/07/07 13:01:18;;;;;;;;;;;29.50;70.50;;;;;;5090290;28;20708;-80
2023/07/07 13:03:44;;;;;;;;;;;29.60;69.50;;;;;;5083841;28;19938;-79
2023/07/07 13:06:28;;;;;;;;;;;29.80;68.10;;;;;;5091489;28;19932;-82
2023/07/07 13:09:12;;;;;;;;;;;29.60;68.60;;;;;;5113327;28;19969;-80
2023/07/07 13:11:41;;;;;;;;;;;29.30;66.80;;;;;;5094385;28;19930;-80
2023/07/07 13:14:26;;;;;;;;;;;29.30;67.90;;;;;;5090297;28;19924;-84
2023/07/07 13:16:51;;;;;;;;;;;29.30;69.80;;;;;;5103989;28;20008;-79
2023/07/07 13:19:20;;;;;;;;;;;29.40;67.80;;;;;;5090893;28;19968;-78
2023/07/07 13:21:47;;;;;;;;;;;29.50;67.90;;;;;;5094766;28;19932;-81
2023/07/07 13:24:14;;;;;;;;;;;29.50;68.40;;;;;;5092982;28;19924;-79
2023/07/07 13:26:39;;;;;;;;;;;29.60;67.60;;;;;;5094996;28;19963;-81
2023/07/07 13:29:05;;;;;;;;;;;29.70;66.70;;;;;;5095834;28;20419;-76
2023/07/07 13:31:45;;;;;;;;;;;;;;;;;;;;;
2023/07/07 13:34:14;;;;;;;;;;;29.50;67.10;;;;;;5092781;28;20328;-82
2023/07/07 13:36:39;;;;;;;;;;;29.50;65.90;;;;;;5092413;28;20905;-80
2023/07/07 13:39:06;;;;;;;;;;;29.50;67.60;;;;;;5101338;28;19984;-80
2023/07/07 13:41:32;;;;;;;;;;;29.60;66.80;;;;;;5086333;28;19928;-79
2023/07/07 13:43:58;;;;;;;;;;;29.60;66.30;;;;;;5100727;28;19935;-79
2023/07/07 13:46:30;;;;;;;;;;;29.60;66.70;;;;;;5071566;28;19963;-79
2023/07/07 13:48:57;;;;;;;;;;;29.40;65.60;;;;;;5084124;28;19929;-79
2023/07/07 13:51:30;;;;;;;;;;;29.30;67.20;;;;;;5104069;28;19931;-80
2023/07/07 13:53:57;;;;;;;;;;;29.20;64.60;;;;;;5099354;28;19930;-79
2023/07/07 13:56:23;;;;;;;;;;;29.30;69.60;;;;;;5101162;28;19919;-79
2023/07/07 13:58:50;;;;;;;;;;;29.40;66.90;;;;;;5091107;28;19924;-82
2023/07/07 14:01:23;;;;;;;;;;;29.50;66.20;;;;;;5102760;28;19974;-79
2023/07/07 14:03:49;;;;;;;;;;;29.60;64.90;;;;;;5096846;28;19931;-79
2023/07/07 14:06:15;;;;;;;;;;;29.40;64.50;;;;;;5096950;28;19940;-83
2023/07/07 14:08:41;;;;;;;;;;;29.30;65.30;;;;;;5096413;28;19924;-81
2023/07/07 14:11:14;;;;;;;;;;;29.20;65.20;;;;;;5098890;28;19924;-78
2023/07/07 14:13:40;;;;;;;;;;;29.10;65.30;;;;;;5100465;28;19932;-80
2023/07/07 14:16:14;;;;;;;;;;;29.10;66.60;;;;;;5099465;28;19924;-79
2023/07/07 14:18:43;;;;;;;;;;;29.30;66.00;;;;;;5103847;28;19974;-80
2023/07/07 14:21:11;;;;;;;;;;;29.30;63.90;;;;;;5104646;28;19924;-82
2023/07/07 14:23:38;;;;;;;;;;;29.40;65.20;;;;;;5102650;28;19908;-82
2023/07/07 14:26:05;;;;;;;;;;;29.60;64.30;;;;;;5098813;28;19939;-81